sensor_id;sensor_type;location;lat;lon;timestamp;pressure;altitude;pressure_sealevel;temperature;humidity
33697;BME280;20031;43.416;23.232;2023-12-07T00:01:33;100001.09;;;2.51;92.85
33697;BME280;20031;43.416;23.232;2023-12-07T00:04:00;99999.34;;;2.51;92.18
33697;BME280;20031;43.416;23.232;2023-12-07T00:06:25;100004.16;;;2.55;92.62
33697;BME280;20031;43.416;23.232;2023-12-07T00:08:51;100012.78;;;2.54;92.36
33697;BME280;20031;43.416;23.232;2023-12-07T00:11:17;100014.44;;;2.55;92.54
33697;BME280;20031;43.416;23.232;2023-12-07T00:13:42;100007.06;;;2.51;92.25
33697;BME280;20031;43.416;23.232;2023-12-07T00:16:08;100015.59;;;2.52;92.11
33697;BME280;20031;43.416;23.232;2023-12-07T00:18:33;100015.47;;;2.53;91.80
33697;BME280;20031;43.416;23.232;2023-12-07T00:20:59;100022.25;;;2.54;92.26
33697;BME280;20031;43.416;23.232;2023-12-07T00:23:24;100028.00;;;2.57;92.04
33697;BME280;20031;43.416;23.232;2023-12-07T00:25:50;100028.84;;;2.58;92.45
33697;BME280;20031;43.416;23.232;2023-12-07T00:28:15;100019.81;;;2.53;92.18
33697;BME280;20031;43.416;23.232;2023-12-07T00:30:41;100028.00;;;2.57;92.30
33697;BME280;20031;43.416;23.232;2023-12-07T00:33:08;100023.59;;;2.59;92.04
33697;BME280;20031;43.416;23.232;2023-12-07T00:35:34;100019.94;;;2.62;92.04
33697;BME280;20031;43.416;23.232;2023-12-07T00:38:01;100026.63;;;2.64;92.16
33697;BME280;20031;43.416;23.232;2023-12-07T00:40:26;100029.19;;;2.64;92.22
33697;BME280;20031;43.416;23.232;2023-12-07T00:42:52;100024.78;;;2.66;92.12
33697;BME280;20031;43.416;23.232;2023-12-07T00:45:18;100021.50;;;2.64;92.00
33697;BME280;20031;43.416;23.232;2023-12-07T00:47:43;100029.81;;;2.68;92.44
33697;BME280;20031;43.416;23.232;2023-12-07T00:50:12;100026.28;;;2.69;92.03
33697;BME280;20031;43.416;23.232;2023-12-07T00:52:38;100033.09;;;2.70;92.03
33697;BME280;20031;43.416;23.232;2023-12-07T00:55:03;100037.41;;;2.69;92.31
33697;BME280;20031;43.416;23.232;2023-12-07T00:57:29;100044.41;;;2.67;92.32
33697;BME280;20031;43.416;23.232;2023-12-07T00:59:55;100037.75;;;2.65;92.29
33697;BME280;20031;43.416;23.232;2023-12-07T01:02:20;100043.59;;;2.67;92.00
33697;BME280;20031;43.416;23.232;2023-12-07T01:04:46;100040.22;;;2.66;92.10
33697;BME280;20031;43.416;23.232;2023-12-07T01:07:12;100038.44;;;2.67;92.07
33697;BME280;20031;43.416;23.232;2023-12-07T01:09:37;100027.34;;;2.66;92.30
33697;BME280;20031;43.416;23.232;2023-12-07T01:12:03;100026.41;;;2.67;91.82
33697;BME280;20031;43.416;23.232;2023-12-07T01:14:28;100028.75;;;2.70;91.88
33697;BME280;20031;43.416;23.232;2023-12-07T01:16:54;100027.13;;;2.69;92.18
33697;BME280;20031;43.416;23.232;2023-12-07T01:19:19;100032.84;;;2.73;92.22
33697;BME280;20031;43.416;23.232;2023-12-07T01:21:45;100026.91;;;2.72;92.39
33697;BME280;20031;43.416;23.232;2023-12-07T01:24:10;100019.09;;;2.74;91.79
33697;BME280;20031;43.416;23.232;2023-12-07T01:26:36;100012.28;;;2.73;92.12
33697;BME280;20031;43.416;23.232;2023-12-07T01:29:01;100021.66;;;2.74;92.16
33697;BME280;20031;43.416;23.232;2023-12-07T01:31:28;100019.91;;;2.74;92.04
33697;BME280;20031;43.416;23.232;2023-12-07T01:33:54;100018.06;;;2.76;92.40
33697;BME280;20031;43.416;23.232;2023-12-07T01:36:19;100024.13;;;2.75;91.73
33697;BME280;20031;43.416;23.232;2023-12-07T01:38:45;100013.94;;;2.74;91.82
33697;BME280;20031;43.416;23.232;2023-12-07T01:41:11;100013.09;;;2.73;91.98
33697;BME280;20031;43.416;23.232;2023-12-07T01:43:36;100011.25;;;2.75;92.21
33697;BME280;20031;43.416;23.232;2023-12-07T01:46:02;100012.06;;;2.76;92.11
33697;BME280;20031;43.416;23.232;2023-12-07T01:48:29;100011.03;;;2.78;92.01
33697;BME280;20031;43.416;23.232;2023-12-07T01:50:55;100002.41;;;2.79;91.81
33697;BME280;20031;43.416;23.232;2023-12-07T01:53:23;100003.59;;;2.86;92.08
33697;BME280;20031;43.416;23.232;2023-12-07T01:55:49;100001.13;;;2.85;92.34
33697;BME280;20031;43.416;23.232;2023-12-07T01:58:17;100006.88;;;2.88;92.11
33697;BME280;20031;43.416;23.232;2023-12-07T02:00:44;99999.84;;;2.90;92.19
33697;BME280;20031;43.416;23.232;2023-12-07T02:03:11;99998.00;;;2.92;91.69
33697;BME280;20031;43.416;23.232;2023-12-07T02:05:37;99999.84;;;2.90;91.54
33697;BME280;20031;43.416;23.232;2023-12-07T02:08:05;99998.94;;;2.91;92.00
33697;BME280;20031;43.416;23.232;2023-12-07T02:10:30;100002.31;;;2.92;91.42
33697;BME280;20031;43.416;23.232;2023-12-07T02:12:55;100004.75;;;2.93;91.87
33697;BME280;20031;43.416;23.232;2023-12-07T02:15:21;100007.94;;;2.97;91.80
33697;BME280;20031;43.416;23.232;2023-12-07T02:18:14;100001.16;;;2.96;91.82
33697;BME280;20031;43.416;23.232;2023-12-07T02:21:06;100006.19;;;2.97;91.70
33697;BME280;20031;43.416;23.232;2023-12-07T02:23:37;100001.38;;;2.93;91.72
33697;BME280;20031;43.416;23.232;2023-12-07T02:26:06;99999.63;;;2.93;91.52
33697;BME280;20031;43.416;23.232;2023-12-07T02:28:33;100005.50;;;2.95;91.69
33697;BME280;20031;43.416;23.232;2023-12-07T02:30:59;100005.09;;;2.89;91.06
33697;BME280;20031;43.416;23.232;2023-12-07T02:33:24;100007.56;;;2.90;91.85
33697;BME280;20031;43.416;23.232;2023-12-07T02:35:50;100010.34;;;2.87;91.32
33697;BME280;20031;43.416;23.232;2023-12-07T02:38:16;100015.50;;;2.87;91.50
33697;BME280;20031;43.416;23.232;2023-12-07T02:40:44;100000.31;;;2.84;91.31
33697;BME280;20031;43.416;23.232;2023-12-07T02:43:11;100011.78;;;2.91;91.82
33697;BME280;20031;43.416;23.232;2023-12-07T02:45:37;100013.44;;;2.92;91.67
33697;BME280;20031;43.416;23.232;2023-12-07T02:48:02;100007.25;;;2.95;91.75
33697;BME280;20031;43.416;23.232;2023-12-07T02:50:28;100014.00;;;2.96;91.32
33697;BME280;20031;43.416;23.232;2023-12-07T02:52:54;100007.56;;;2.90;91.46
33697;BME280;20031;43.416;23.232;2023-12-07T02:55:21;100017.72;;;2.92;90.92
33697;BME280;20031;43.416;23.232;2023-12-07T02:57:46;100016.13;;;2.91;91.45
33697;BME280;20031;43.416;23.232;2023-12-07T03:00:12;100016.00;;;2.92;91.84
33697;BME280;20031;43.416;23.232;2023-12-07T03:02:39;100016.47;;;2.97;91.79
33697;BME280;20031;43.416;23.232;2023-12-07T03:05:06;100018.13;;;2.98;91.44
33697;BME280;20031;43.416;23.232;2023-12-07T03:07:33;100020.81;;;2.97;91.41
33697;BME280;20031;43.416;23.232;2023-12-07T03:09:58;100023.25;;;2.98;91.51
33697;BME280;20031;43.416;23.232;2023-12-07T03:12:24;100030.88;;;3.00;91.48
33697;BME280;20031;43.416;23.232;2023-12-07T03:14:49;100023.25;;;2.98;91.41
33697;BME280;20031;43.416;23.232;2023-12-07T03:17:15;100023.25;;;2.98;91.25
33697;BME280;20031;43.416;23.232;2023-12-07T03:19:41;100027.47;;;2.99;91.77
33697;BME280;20031;43.416;23.232;2023-12-07T03:22:07;100024.56;;;3.03;91.86
33697;BME280;20031;43.416;23.232;2023-12-07T03:24:36;100030.41;;;3.05;90.76
33697;BME280;20031;43.416;23.232;2023-12-07T03:27:02;100033.56;;;2.98;90.71
33697;BME280;20031;43.416;23.232;2023-12-07T03:29:28;100033.06;;;2.93;91.04
33697;BME280;20031;43.416;23.232;2023-12-07T03:31:54;100031.09;;;2.97;90.99
33697;BME280;20031;43.416;23.232;2023-12-07T03:34:19;100030.06;;;2.99;91.69
33697;BME280;20031;43.416;23.232;2023-12-07T03:36:48;100024.06;;;2.99;91.58
33697;BME280;20031;43.416;23.232;2023-12-07T03:39:17;100029.81;;;3.02;91.47
33697;BME280;20031;43.416;23.232;2023-12-07T03:41:47;100036.59;;;3.03;91.08
33697;BME280;20031;43.416;23.232;2023-12-07T03:44:13;100033.22;;;3.03;91.02
33697;BME280;20031;43.416;23.232;2023-12-07T03:46:39;100040.13;;;3.02;91.42
33697;BME280;20031;43.416;23.232;2023-12-07T03:49:05;100043.38;;;3.04;91.38
33697;BME280;20031;43.416;23.232;2023-12-07T03:51:30;100044.41;;;3.02;90.54
33697;BME280;20031;43.416;23.232;2023-12-07T03:53:56;100035.19;;;2.99;90.74
33697;BME280;20031;43.416;23.232;2023-12-07T03:56:25;100052.03;;;3.03;91.35
33697;BME280;20031;43.416;23.232;2023-12-07T03:58:51;100047.84;;;3.02;90.94
33697;BME280;20031;43.416;23.232;2023-12-07T04:01:17;100047.72;;;3.03;91.29
33697;BME280;20031;43.416;23.232;2023-12-07T04:03:42;100052.75;;;3.05;91.09
33697;BME280;20031;43.416;23.232;2023-12-07T04:06:08;100053.22;;;3.10;91.68
33697;BME280;20031;43.416;23.232;2023-12-07T04:08:34;100060.81;;;3.11;90.90
33697;BME280;20031;43.416;23.232;2023-12-07T04:11:00;100051.59;;;3.09;90.93
33697;BME280;20031;43.416;23.232;2023-12-07T04:13:25;100053.34;;;3.08;91.06
33697;BME280;20031;43.416;23.232;2023-12-07T04:15:51;100058.38;;;3.10;91.44
33697;BME280;20031;43.416;23.232;2023-12-07T04:18:16;100054.88;;;3.11;91.13
33697;BME280;20031;43.416;23.232;2023-12-07T04:20:42;100054.97;;;3.09;91.46
33697;BME280;20031;43.416;23.232;2023-12-07T04:23:08;100052.53;;;3.08;91.05
33697;BME280;20031;43.416;23.232;2023-12-07T04:25:33;100062.47;;;3.12;91.05
33697;BME280;20031;43.416;23.232;2023-12-07T04:27:59;100062.47;;;3.12;91.01
33697;BME280;20031;43.416;23.232;2023-12-07T04:30:25;100060.81;;;3.11;91.10
33697;BME280;20031;43.416;23.232;2023-12-07T04:32:50;100061.66;;;3.12;91.28
33697;BME280;20031;43.416;23.232;2023-12-07T04:35:15;100059.19;;;3.10;91.37
33697;BME280;20031;43.416;23.232;2023-12-07T04:37:41;100066.81;;;3.12;91.04
33697;BME280;20031;43.416;23.232;2023-12-07T04:40:07;100073.78;;;3.10;91.29
33697;BME280;20031;43.416;23.232;2023-12-07T04:42:33;100077.09;;;3.12;91.14
33697;BME280;20031;43.416;23.232;2023-12-07T04:44:59;100074.53;;;3.12;91.55
33697;BME280;20031;43.416;23.232;2023-12-07T04:47:24;100081.28;;;3.13;91.11
33697;BME280;20031;43.416;23.232;2023-12-07T04:49:49;100082.25;;;3.12;91.13
33697;BME280;20031;43.416;23.232;2023-12-07T04:52:15;100080.47;;;3.12;90.92
33697;BME280;20031;43.416;23.232;2023-12-07T04:54:40;100084.81;;;3.12;91.31
33697;BME280;20031;43.416;23.232;2023-12-07T04:57:07;100092.09;;;3.18;91.71
33697;BME280;20031;43.416;23.232;2023-12-07T04:59:32;100089.28;;;3.21;91.61
33697;BME280;20031;43.416;23.232;2023-12-07T05:01:57;100088.34;;;3.22;91.12
33697;BME280;20031;43.416;23.232;2023-12-07T05:04:23;100094.94;;;3.26;91.24
33697;BME280;20031;43.416;23.232;2023-12-07T05:06:49;100092.44;;;3.24;91.76
33697;BME280;20031;43.416;23.232;2023-12-07T05:09:14;100096.53;;;3.27;91.62
33697;BME280;20031;43.416;23.232;2023-12-07T05:11:40;100099.97;;;3.27;91.80
33697;BME280;20031;43.416;23.232;2023-12-07T05:14:06;100101.47;;;3.30;91.58
33697;BME280;20031;43.416;23.232;2023-12-07T05:16:32;100099.00;;;3.28;91.51
33697;BME280;20031;43.416;23.232;2023-12-07T05:18:57;100102.53;;;3.27;91.80
33697;BME280;20031;43.416;23.232;2023-12-07T05:21:23;100111.75;;;3.30;91.34
33697;BME280;20031;43.416;23.232;2023-12-07T05:23:48;100107.56;;;3.29;91.45
33697;BME280;20031;43.416;23.232;2023-12-07T05:26:14;100103.34;;;3.28;91.76
33697;BME280;20031;43.416;23.232;2023-12-07T05:28:40;100100.53;;;3.31;91.37
33697;BME280;20031;43.416;23.232;2023-12-07T05:31:05;100108.03;;;3.34;91.58
33697;BME280;20031;43.416;23.232;2023-12-07T05:33:32;100105.47;;;3.34;91.56
33697;BME280;20031;43.416;23.232;2023-12-07T05:35:57;100097.16;;;3.30;91.89
33697;BME280;20031;43.416;23.232;2023-12-07T05:38:23;100095.50;;;3.29;91.42
33697;BME280;20031;43.416;23.232;2023-12-07T05:40:49;100100.66;;;3.29;91.48
33697;BME280;20031;43.416;23.232;2023-12-07T05:43:14;100097.84;;;3.32;91.64
33697;BME280;20031;43.416;23.232;2023-12-07T05:45:40;100097.03;;;3.32;91.64
33697;BME280;20031;43.416;23.232;2023-12-07T05:48:06;100103.81;;;3.33;91.71
33697;BME280;20031;43.416;23.232;2023-12-07T05:50:31;100104.53;;;3.35;92.14
33697;BME280;20031;43.416;23.232;2023-12-07T05:52:57;100103.81;;;3.33;91.77
33697;BME280;20031;43.416;23.232;2023-12-07T05:55:22;100111.53;;;3.33;91.84
33697;BME280;20031;43.416;23.232;2023-12-07T05:57:48;100114.94;;;3.33;91.66
33697;BME280;20031;43.416;23.232;2023-12-07T06:00:14;100111.63;;;3.31;92.18
33697;BME280;20031;43.416;23.232;2023-12-07T06:02:41;100110.13;;;3.29;91.74
33697;BME280;20031;43.416;23.232;2023-12-07T06:05:07;100123.34;;;3.35;91.68
33697;BME280;20031;43.416;23.232;2023-12-07T06:07:33;100128.63;;;3.34;92.24
33697;BME280;20031;43.416;23.232;2023-12-07T06:09:59;100132.97;;;3.33;92.19
33697;BME280;20031;43.416;23.232;2023-12-07T06:12:24;100139.72;;;3.34;92.02
33697;BME280;20031;43.416;23.232;2023-12-07T06:14:49;100133.75;;;3.34;92.27
33697;BME280;20031;43.416;23.232;2023-12-07T06:17:16;100138.69;;;3.37;92.25
33697;BME280;20031;43.416;23.232;2023-12-07T06:19:42;100145.47;;;3.38;91.84
33697;BME280;20031;43.416;23.232;2023-12-07T06:22:08;100153.09;;;3.39;92.59
33697;BME280;20031;43.416;23.232;2023-12-07T06:24:33;100151.22;;;3.41;92.64
33697;BME280;20031;43.416;23.232;2023-12-07T06:26:59;100148.53;;;3.43;92.33
33697;BME280;20031;43.416;23.232;2023-12-07T06:29:27;100150.78;;;3.47;92.67
33697;BME280;20031;43.416;23.232;2023-12-07T06:31:52;100152.31;;;3.50;92.53
33697;BME280;20031;43.416;23.232;2023-12-07T06:34:18;100161.66;;;3.51;92.40
33697;BME280;20031;43.416;23.232;2023-12-07T06:36:45;100156.28;;;3.53;92.56
33697;BME280;20031;43.416;23.232;2023-12-07T06:39:10;100150.13;;;3.56;92.95
33697;BME280;20031;43.416;23.232;2023-12-07T06:41:36;100152.06;;;3.53;92.53
33697;BME280;20031;43.416;23.232;2023-12-07T06:44:01;100147.88;;;3.52;92.61
33697;BME280;20031;43.416;23.232;2023-12-07T06:46:27;100142.13;;;3.48;92.41
33697;BME280;20031;43.416;23.232;2023-12-07T06:48:52;100145.31;;;3.52;92.44
33697;BME280;20031;43.416;23.232;2023-12-07T06:51:18;100149.50;;;3.53;92.86
33697;BME280;20031;43.416;23.232;2023-12-07T06:53:44;100152.81;;;3.54;92.99
33697;BME280;20031;43.416;23.232;2023-12-07T06:56:09;100157.72;;;3.57;92.45
33697;BME280;20031;43.416;23.232;2023-12-07T06:58:35;100141.25;;;3.60;92.96
33697;BME280;20031;43.416;23.232;2023-12-07T07:01:00;100152.34;;;3.60;93.13
33697;BME280;20031;43.416;23.232;2023-12-07T07:03:26;100154.00;;;3.61;92.70
33697;BME280;20031;43.416;23.232;2023-12-07T07:05:54;100148.97;;;3.60;92.95
33697;BME280;20031;43.416;23.232;2023-12-07T07:08:21;100143.69;;;3.61;92.87
33697;BME280;20031;43.416;23.232;2023-12-07T07:10:46;100151.19;;;3.64;92.91
33697;BME280;20031;43.416;23.232;2023-12-07T07:13:12;100152.72;;;3.67;92.95
33697;BME280;20031;43.416;23.232;2023-12-07T07:15:41;100160.34;;;3.68;93.27
33697;BME280;20031;43.416;23.232;2023-12-07T07:18:09;100158.69;;;3.67;93.23
33697;BME280;20031;43.416;23.232;2023-12-07T07:20:35;100162.56;;;3.73;93.54
33697;BME280;20031;43.416;23.232;2023-12-07T07:23:00;100166.88;;;3.72;93.70
33697;BME280;20031;43.416;23.232;2023-12-07T07:25:26;100164.09;;;3.75;93.20
33697;BME280;20031;43.416;23.232;2023-12-07T07:27:52;100170.88;;;3.76;92.99
33697;BME280;20031;43.416;23.232;2023-12-07T07:30:20;100167.50;;;3.76;92.80
33697;BME280;20031;43.416;23.232;2023-12-07T07:32:45;100172.63;;;3.76;93.40
33697;BME280;20031;43.416;23.232;2023-12-07T07:35:11;100170.28;;;3.73;93.56
33697;BME280;20031;43.416;23.232;2023-12-07T07:37:38;100185.50;;;3.76;93.29
33697;BME280;20031;43.416;23.232;2023-12-07T07:40:04;100178.47;;;3.78;93.42
33697;BME280;20031;43.416;23.232;2023-12-07T07:42:35;100184.25;;;3.81;93.06
33697;BME280;20031;43.416;23.232;2023-12-07T07:45:00;100188.22;;;3.85;93.01
33697;BME280;20031;43.416;23.232;2023-12-07T07:47:26;100183.78;;;3.87;93.29
33697;BME280;20031;43.416;23.232;2023-12-07T07:49:51;100186.03;;;3.92;93.09
33697;BME280;20031;43.416;23.232;2023-12-07T07:52:17;100188.59;;;3.92;93.66
33697;BME280;20031;43.416;23.232;2023-12-07T07:54:42;100184.94;;;3.83;93.04
33697;BME280;20031;43.416;23.232;2023-12-07T07:57:08;100196.44;;;3.90;93.08
33697;BME280;20031;43.416;23.232;2023-12-07T07:59:34;100191.66;;;3.97;93.57
33697;BME280;20031;43.416;23.232;2023-12-07T08:01:59;100199.16;;;4.00;93.36
33697;BME280;20031;43.416;23.232;2023-12-07T08:04:26;100200.66;;;4.02;93.77
33697;BME280;20031;43.416;23.232;2023-12-07T08:06:52;100205.59;;;4.05;93.98
33697;BME280;20031;43.416;23.232;2023-12-07T08:09:18;100197.66;;;4.08;93.79
33697;BME280;20031;43.416;23.232;2023-12-07T08:11:43;100196.00;;;4.07;93.42
33697;BME280;20031;43.416;23.232;2023-12-07T08:14:09;100205.38;;;4.08;93.61
33697;BME280;20031;43.416;23.232;2023-12-07T08:16:34;100204.44;;;4.09;93.38
33697;BME280;20031;43.416;23.232;2023-12-07T08:19:00;100200.81;;;4.11;93.40
33697;BME280;20031;43.416;23.232;2023-12-07T08:21:25;100208.44;;;4.13;93.61
33697;BME280;20031;43.416;23.232;2023-12-07T08:23:51;100213.56;;;4.13;93.57
33697;BME280;20031;43.416;23.232;2023-12-07T08:26:17;100209.03;;;4.16;93.68
33697;BME280;20031;43.416;23.232;2023-12-07T08:28:43;100209.50;;;4.21;93.76
33697;BME280;20031;43.416;23.232;2023-12-07T08:31:10;100214.31;;;4.26;93.91
33697;BME280;20031;43.416;23.232;2023-12-07T08:33:36;100212.66;;;4.25;93.74
33697;BME280;20031;43.416;23.232;2023-12-07T08:36:04;100221.00;;;4.28;93.33
33697;BME280;20031;43.416;23.232;2023-12-07T08:38:30;100216.53;;;4.30;93.17
33697;BME280;20031;43.416;23.232;2023-12-07T08:40:56;100211.97;;;4.34;93.48
33697;BME280;20031;43.416;23.232;2023-12-07T08:43:24;100213.13;;;4.30;93.70
33697;BME280;20031;43.416;23.232;2023-12-07T08:45:52;100213.72;;;4.33;93.55
33697;BME280;20031;43.416;23.232;2023-12-07T08:48:19;100217.03;;;4.35;93.75
33697;BME280;20031;43.416;23.232;2023-12-07T08:50:45;100210.94;;;4.36;93.15
33697;BME280;20031;43.416;23.232;2023-12-07T08:53:10;100218.09;;;4.44;93.55
33697;BME280;20031;43.416;23.232;2023-12-07T08:55:36;100215.97;;;4.49;93.61
33697;BME280;20031;43.416;23.232;2023-12-07T08:58:01;100211.03;;;4.46;93.15
33697;BME280;20031;43.416;23.232;2023-12-07T09:00:32;100216.66;;;4.40;92.88
33697;BME280;20031;43.416;23.232;2023-12-07T09:02:58;100218.78;;;4.46;93.85
33697;BME280;20031;43.416;23.232;2023-12-07T09:05:24;100211.16;;;4.44;93.53
33697;BME280;20031;43.416;23.232;2023-12-07T09:07:50;100216.06;;;4.47;93.59
33697;BME280;20031;43.416;23.232;2023-12-07T09:10:16;100214.34;;;4.48;93.44
33697;BME280;20031;43.416;23.232;2023-12-07T09:12:41;100220.31;;;4.48;93.63
33697;BME280;20031;43.416;23.232;2023-12-07T09:15:07;100215.38;;;4.45;93.07
33697;BME280;20031;43.416;23.232;2023-12-07T09:17:33;100212.56;;;4.48;93.53
33697;BME280;20031;43.416;23.232;2023-12-07T09:19:58;100210.81;;;4.49;93.39
33697;BME280;20031;43.416;23.232;2023-12-07T09:22:24;100214.09;;;4.51;93.43
33697;BME280;20031;43.416;23.232;2023-12-07T09:24:50;100213.97;;;4.52;92.99
33697;BME280;20031;43.416;23.232;2023-12-07T09:27:15;100217.38;;;4.53;93.34
33697;BME280;20031;43.416;23.232;2023-12-07T09:29:41;100211.97;;;4.55;93.42
33697;BME280;20031;43.416;23.232;2023-12-07T09:32:07;100212.91;;;4.54;93.24
33697;BME280;20031;43.416;23.232;2023-12-07T09:34:33;100208.72;;;4.54;93.73
33697;BME280;20031;43.416;23.232;2023-12-07T09:37:09;100211.06;;;4.56;93.31
33697;BME280;20031;43.416;23.232;2023-12-07T09:39:35;100201.66;;;4.55;93.78
33697;BME280;20031;43.416;23.232;2023-12-07T09:42:01;100201.66;;;4.55;93.67
33697;BME280;20031;43.416;23.232;2023-12-07T09:44:27;100206.59;;;4.58;93.55
33697;BME280;20031;43.416;23.232;2023-12-07T09:46:52;100201.78;;;4.65;93.34
33697;BME280;20031;43.416;23.232;2023-12-07T09:49:18;100201.78;;;4.65;93.63
33697;BME280;20031;43.416;23.232;2023-12-07T09:51:44;100202.72;;;4.64;93.60
33697;BME280;20031;43.416;23.232;2023-12-07T09:54:11;100210.47;;;4.64;93.34
33697;BME280;20031;43.416;23.232;2023-12-07T09:56:37;100198.50;;;4.63;92.92
33697;BME280;20031;43.416;23.232;2023-12-07T09:59:03;100200.25;;;4.62;93.31
33697;BME280;20031;43.416;23.232;2023-12-07T10:01:29;100194.06;;;4.65;93.47
33697;BME280;20031;43.416;23.232;2023-12-07T10:04:19;100197.81;;;4.72;93.37
33697;BME280;20031;43.416;23.232;2023-12-07T10:06:45;100193.00;;;4.67;92.50
33697;BME280;20031;43.416;23.232;2023-12-07T10:09:11;100197.22;;;4.68;92.55
33697;BME280;20031;43.416;23.232;2023-12-07T10:11:38;100193.94;;;4.66;93.14
33697;BME280;20031;43.416;23.232;2023-12-07T10:14:06;100195.69;;;4.66;92.75
33697;BME280;20031;43.416;23.232;2023-12-07T10:16:33;100195.78;;;4.64;92.78
33697;BME280;20031;43.416;23.232;2023-12-07T10:19:28;100193.09;;;4.66;92.46
33697;BME280;20031;43.416;23.232;2023-12-07T10:21:54;100192.03;;;4.68;92.96
33697;BME280;20031;43.416;23.232;2023-12-07T10:24:24;100202.47;;;4.67;92.22
33697;BME280;20031;43.416;23.232;2023-12-07T10:26:51;100196.75;;;4.63;92.20
33697;BME280;20031;43.416;23.232;2023-12-07T10:29:20;100198.59;;;4.61;92.60
33697;BME280;20031;43.416;23.232;2023-12-07T10:31:48;100202.16;;;4.60;92.49
33697;BME280;20031;43.416;23.232;2023-12-07T10:34:17;100199.69;;;4.59;92.18
33697;BME280;20031;43.416;23.232;2023-12-07T10:36:45;100193.69;;;4.58;92.20
33697;BME280;20031;43.416;23.232;2023-12-07T10:39:11;100195.34;;;4.59;92.30
33697;BME280;20031;43.416;23.232;2023-12-07T10:41:38;100203.78;;;4.61;91.79
33697;BME280;20031;43.416;23.232;2023-12-07T10:44:06;100192.88;;;4.58;92.11
33697;BME280;20031;43.416;23.232;2023-12-07T10:46:33;100201.66;;;4.55;91.49
33697;BME280;20031;43.416;23.232;2023-12-07T10:49:04;100205.91;;;4.56;91.49
33697;BME280;20031;43.416;23.232;2023-12-07T10:51:51;100200.00;;;4.54;91.67
33697;BME280;20031;43.416;23.232;2023-12-07T10:54:22;100202.84;;;4.52;91.40
33697;BME280;20031;43.416;23.232;2023-12-07T10:56:48;100199.44;;;4.51;91.36
33697;BME280;20031;43.416;23.232;2023-12-07T10:59:17;100200.50;;;4.49;91.71
33697;BME280;20031;43.416;23.232;2023-12-07T11:01:43;100198.16;;;4.46;90.96
33697;BME280;20031;43.416;23.232;2023-12-07T11:04:13;100204.72;;;4.39;91.02
33697;BME280;20031;43.416;23.232;2023-12-07T11:06:45;100202.97;;;4.39;91.50
33697;BME280;20031;43.416;23.232;2023-12-07T11:09:23;100204.34;;;4.43;91.67
33697;BME280;20031;43.416;23.232;2023-12-07T11:12:09;100208.47;;;4.46;91.33
33697;BME280;20031;43.416;23.232;2023-12-07T11:14:37;100204.47;;;4.42;90.94
33697;BME280;20031;43.416;23.232;2023-12-07T11:17:03;100200.97;;;4.43;91.35
33697;BME280;20031;43.416;23.232;2023-12-07T11:21:55;100214.34;;;4.48;90.39
33697;BME280;20031;43.416;23.232;2023-12-07T11:24:23;100205.19;;;4.44;90.89
33697;BME280;20031;43.416;23.232;2023-12-07T11:26:48;100214.78;;;4.42;90.88
33697;BME280;20031;43.416;23.232;2023-12-07T11:29:14;100197.69;;;4.41;90.27
33697;BME280;20031;43.416;23.232;2023-12-07T11:31:40;100205.78;;;4.36;90.14
33697;BME280;20031;43.416;23.232;2023-12-07T11:34:06;100207.75;;;4.33;90.49
33697;BME280;20031;43.416;23.232;2023-12-07T11:36:33;100209.53;;;4.32;90.36
33697;BME280;20031;43.416;23.232;2023-12-07T11:39:18;100208.69;;;4.32;90.50
33697;BME280;20031;43.416;23.232;2023-12-07T11:41:44;100212.44;;;4.28;89.80
33697;BME280;20031;43.416;23.232;2023-12-07T11:44:10;100209.38;;;4.23;90.16
33697;BME280;20031;43.416;23.232;2023-12-07T11:46:38;100213.84;;;4.21;89.77
33697;BME280;20031;43.416;23.232;2023-12-07T11:49:03;100212.31;;;4.18;90.12
33697;BME280;20031;43.416;23.232;2023-12-07T11:51:30;100210.41;;;4.20;89.91
33697;BME280;20031;43.416;23.232;2023-12-07T11:53:56;100218.50;;;4.16;89.97
33697;BME280;20031;43.416;23.232;2023-12-07T11:56:21;100211.00;;;4.13;89.75
33697;BME280;20031;43.416;23.232;2023-12-07T11:58:47;100209.47;;;4.10;89.50
33697;BME280;20031;43.416;23.232;2023-12-07T12:01:13;100212.16;;;4.09;89.68
33697;BME280;20031;43.416;23.232;2023-12-07T12:03:38;100211.00;;;4.13;89.33
33697;BME280;20031;43.416;23.232;2023-12-07T12:06:05;100212.88;;;4.11;89.38
33697;BME280;20031;43.416;23.232;2023-12-07T12:08:33;100216.16;;;4.13;90.01
33697;BME280;20031;43.416;23.232;2023-12-07T12:10:59;100206.44;;;4.05;89.26
33697;BME280;20031;43.416;23.232;2023-12-07T12:13:29;100211.47;;;4.07;89.47
33697;BME280;20031;43.416;23.232;2023-12-07T12:15:55;100209.13;;;4.04;89.75
33697;BME280;20031;43.416;23.232;2023-12-07T12:18:21;100214.03;;;4.07;89.60
33697;BME280;20031;43.416;23.232;2023-12-07T12:20:50;100216.50;;;4.08;89.42
33697;BME280;20031;43.416;23.232;2023-12-07T12:23:15;100209.81;;;4.06;89.32
33697;BME280;20031;43.416;23.232;2023-12-07T12:25:41;100219.19;;;4.07;89.75
33697;BME280;20031;43.416;23.232;2023-12-07T12:28:07;100218.59;;;4.03;89.49
33697;BME280;20031;43.416;23.232;2023-12-07T12:30:34;100220.47;;;4.02;89.43
33697;BME280;20031;43.416;23.232;2023-12-07T12:32:59;100219.88;;;3.98;89.88
33697;BME280;20031;43.416;23.232;2023-12-07T12:35:25;100214.22;;;3.93;89.75
33697;BME280;20031;43.416;23.232;2023-12-07T12:37:50;100220.44;;;3.91;89.51
33697;BME280;20031;43.416;23.232;2023-12-07T12:40:20;100213.88;;;3.87;89.68
33697;BME280;20031;43.416;23.232;2023-12-07T12:42:47;100221.00;;;3.83;89.55
33697;BME280;20031;43.416;23.232;2023-12-07T12:45:14;100223.69;;;3.82;89.55
33697;BME280;20031;43.416;23.232;2023-12-07T12:47:44;100221.22;;;3.80;90.09
33697;BME280;20031;43.416;23.232;2023-12-07T12:50:10;100223.81;;;3.80;89.38